Time;durP1;ratioP1;P1;durP2;ratioP2;P2;SDS_P1;SDS_P2;PMS_P1;PMS_P2;Temp;Humidity;BMP_temperature;BMP_pressure;BME280_temperature;BME280_humidity;BME280_pressure;Samples;Min_cycle;Max_cycle;Signal;HPM_P1;HPM_P2
2023/08/28 00:02:22;;;;;;;0.40;0.40;;;14.60;99.90;;;;;;4926836;29;20024;-82
2023/08/28 00:04:50;;;;;;;0.30;0.30;;;14.70;99.90;;;;;;4928649;29;20028;-82
2023/08/28 00:07:15;;;;;;;0.50;0.50;;;14.70;99.90;;;;;;4928006;29;20027;-80
2023/08/28 00:09:41;;;;;;;0.30;0.30;;;14.70;99.90;;;;;;4925694;29;20091;-80
2023/08/28 00:12:07;;;;;;;0.45;0.45;;;14.70;99.90;;;;;;4924092;29;20119;-80
2023/08/28 00:14:33;;;;;;;0.40;0.40;;;14.70;99.90;;;;;;4917846;29;20569;-80
2023/08/28 00:16:59;;;;;;;0.50;0.50;;;14.80;99.90;;;;;;4924270;29;20031;-80
2023/08/28 00:19:25;;;;;;;0.40;0.40;;;14.80;99.90;;;;;;4916777;29;20027;-81
2023/08/28 00:21:50;;;;;;;0.45;0.45;;;14.90;99.90;;;;;;4925225;29;20704;-80
2023/08/28 00:24:16;;;;;;;0.30;0.30;;;14.90;99.90;;;;;;4940921;28;20131;-79
2023/08/28 00:26:41;;;;;;;0.40;0.40;;;14.80;99.90;;;;;;4926151;29;20083;-79
2023/08/28 00:29:07;;;;;;;0.40;0.40;;;14.90;99.90;;;;;;4926686;29;20099;-80
2023/08/28 00:31:33;;;;;;;0.40;0.40;;;14.90;99.90;;;;;;4928360;29;20035;-79
2023/08/28 00:33:59;;;;;;;0.40;0.40;;;14.90;99.90;;;;;;4939932;28;20095;-80
2023/08/28 00:36:25;;;;;;;0.30;0.30;;;14.90;99.90;;;;;;4918530;29;20034;-80
2023/08/28 00:38:50;;;;;;;0.40;0.40;;;14.80;99.90;;;;;;4928065;29;20031;-80
2023/08/28 00:41:16;;;;;;;0.50;0.50;;;14.80;99.90;;;;;;4927213;29;20031;-80
2023/08/28 00:43:41;;;;;;;0.40;0.40;;;14.80;99.90;;;;;;4941797;28;20032;-80
2023/08/28 00:46:07;;;;;;;0.40;0.40;;;14.80;99.90;;;;;;4929666;29;20112;-80
2023/08/28 00:48:33;;;;;;;0.57;0.50;;;14.90;99.90;;;;;;4928450;29;20124;-79
2023/08/28 00:51:00;;;;;;;0.40;0.40;;;14.90;99.90;;;;;;4928759;29;20098;-79
2023/08/28 00:53:26;;;;;;;0.40;0.40;;;14.90;99.90;;;;;;4928168;29;20042;-80
2023/08/28 00:55:52;;;;;;;0.40;0.40;;;14.90;99.90;;;;;;4926524;29;20023;-80
2023/08/28 00:58:21;;;;;;;0.40;0.40;;;14.90;99.90;;;;;;4926079;29;20500;-79
2023/08/28 01:00:47;;;;;;;0.30;0.30;;;14.90;99.90;;;;;;4940657;28;20031;-80
2023/08/28 01:03:13;;;;;;;0.50;0.50;;;14.80;99.90;;;;;;4946112;28;20539;-80
2023/08/28 01:05:42;;;;;;;0.35;0.35;;;14.80;99.90;;;;;;4928913;29;20030;-80
2023/08/28 01:08:25;;;;;;;0.40;0.40;;;14.80;99.90;;;;;;4927191;29;20023;-80
2023/08/28 01:11:07;;;;;;;0.30;0.30;;;14.80;99.90;;;;;;4927433;29;20543;-79
2023/08/28 01:13:51;;;;;;;0.30;0.30;;;14.70;99.90;;;;;;4902067;29;20044;-79
2023/08/28 01:16:21;;;;;;;0.30;0.30;;;14.80;99.90;;;;;;4926297;29;20275;-79
2023/08/28 01:18:48;;;;;;;0.40;0.40;;;14.80;99.90;;;;;;4903445;29;20051;-80
2023/08/28 01:21:14;;;;;;;0.30;0.30;;;14.80;99.90;;;;;;4927022;29;20090;-80
2023/08/28 01:23:57;;;;;;;0.30;0.30;;;14.80;99.90;;;;;;4926773;29;20020;-80
2023/08/28 01:26:24;;;;;;;0.35;0.35;;;14.80;99.90;;;;;;4927266;29;20065;-80
2023/08/28 01:28:50;;;;;;;0.60;0.60;;;14.80;99.90;;;;;;4923867;29;20019;-79
2023/08/28 01:31:16;;;;;;;0.40;0.40;;;14.80;99.90;;;;;;4926793;29;20031;-80
2023/08/28 01:33:44;;;;;;;0.40;0.40;;;14.80;99.90;;;;;;4906119;29;20035;-79
2023/08/28 01:36:31;;;;;;;0.40;0.40;;;14.80;99.90;;;;;;4926295;29;20032;-80
2023/08/28 01:39:04;;;;;;;0.40;0.40;;;14.80;99.90;;;;;;4926384;29;20035;-82
2023/08/28 01:41:32;;;;;;;0.40;0.40;;;14.70;99.90;;;;;;4926323;29;20054;-81
2023/08/28 01:44:01;;;;;;;0.30;0.30;;;14.70;99.90;;;;;;4927668;29;20035;-82
2023/08/28 01:46:28;;;;;;;0.40;0.40;;;14.60;99.90;;;;;;4929138;29;20039;-79
2023/08/28 01:48:54;;;;;;;0.32;0.32;;;14.60;99.90;;;;;;4930913;29;20495;-80
2023/08/28 01:51:20;;;;;;;0.30;0.30;;;14.50;99.90;;;;;;4929225;29;20115;-79
2023/08/28 01:53:47;;;;;;;0.30;0.30;;;14.40;99.90;;;;;;4919493;29;20042;-80
2023/08/28 01:56:19;;;;;;;0.30;0.30;;;14.40;99.90;;;;;;4909416;29;20027;-80
2023/08/28 01:58:55;;;;;;;1.25;1.20;;;14.30;99.90;;;;;;4907638;29;20036;-82
2023/08/28 02:01:25;;;;;;;0.30;0.30;;;14.30;99.90;;;;;;4931805;29;20019;-82
2023/08/28 02:03:51;;;;;;;0.35;0.35;;;14.20;99.90;;;;;;4932377;29;20488;-79
2023/08/28 02:06:20;;;;;;;0.40;0.40;;;14.20;99.90;;;;;;4929838;29;20370;-79
2023/08/28 02:08:46;;;;;;;0.38;0.38;;;14.20;99.90;;;;;;4928794;29;20383;-80
2023/08/28 02:11:12;;;;;;;0.30;0.30;;;14.10;99.90;;;;;;4918852;29;20035;-81
2023/08/28 02:13:38;;;;;;;0.30;0.30;;;14.10;99.90;;;;;;4928485;29;20028;-80
2023/08/28 02:16:04;;;;;;;0.30;0.30;;;14.10;99.90;;;;;;4908321;29;20543;-80
2023/08/28 02:18:30;;;;;;;0.30;0.30;;;14.20;99.90;;;;;;4929611;29;20091;-80
2023/08/28 02:20:56;;;;;;;0.40;0.40;;;14.20;99.90;;;;;;4930740;29;20023;-80
2023/08/28 02:23:22;;;;;;;0.38;0.38;;;14.30;99.90;;;;;;4930691;29;20388;-80
2023/08/28 02:25:48;;;;;;;0.40;0.40;;;14.30;99.90;;;;;;4929759;29;20031;-80
2023/08/28 02:28:15;;;;;;;0.40;0.40;;;14.40;99.90;;;;;;4931471;29;20055;-80
2023/08/28 02:30:40;;;;;;;0.40;0.40;;;14.40;99.90;;;;;;4909129;29;20035;-79
2023/08/28 02:33:06;;;;;;;0.40;0.40;;;14.40;99.90;;;;;;4905096;29;20369;-79
2023/08/28 02:35:32;;;;;;;0.40;0.40;;;14.40;99.90;;;;;;4929982;29;20031;-79
2023/08/28 02:37:57;;;;;;;0.43;0.43;;;14.40;99.90;;;;;;4931918;29;20088;-79
2023/08/28 02:40:24;;;;;;;0.40;0.40;;;14.30;99.90;;;;;;4943801;28;20468;-80
2023/08/28 02:42:50;;;;;;;0.40;0.40;;;14.30;99.90;;;;;;4930684;29;20102;-80
2023/08/28 02:45:15;;;;;;;0.40;0.40;;;14.20;99.90;;;;;;4927998;29;20110;-79
2023/08/28 02:47:43;;;;;;;0.47;0.47;;;14.20;99.90;;;;;;4929191;29;20468;-80
2023/08/28 02:50:10;;;;;;;0.32;0.32;;;14.20;99.90;;;;;;4915845;29;20552;-80
2023/08/28 02:52:35;;;;;;;0.40;0.40;;;14.20;99.90;;;;;;4930226;29;20043;-79
2023/08/28 02:55:01;;;;;;;0.40;0.40;;;14.10;99.90;;;;;;4928315;29;20017;-79
2023/08/28 02:57:27;;;;;;;0.40;0.40;;;14.20;99.90;;;;;;4927902;29;20054;-80
2023/08/28 02:59:55;;;;;;;0.60;0.60;;;14.10;99.90;;;;;;4930917;29;20349;-81
2023/08/28 03:02:20;;;;;;;0.50;0.50;;;14.10;99.90;;;;;;4927887;29;20023;-80
2023/08/28 03:04:46;;;;;;;0.40;0.40;;;14.10;99.90;;;;;;4904835;29;20558;-80
2023/08/28 03:07:11;;;;;;;0.40;0.40;;;13.90;99.90;;;;;;4928560;29;20055;-80
2023/08/28 03:09:38;;;;;;;0.40;0.40;;;13.90;99.90;;;;;;4942683;28;20060;-81
2023/08/28 03:12:04;;;;;;;0.50;0.50;;;13.90;99.90;;;;;;4931368;29;20043;-80
2023/08/28 03:14:29;;;;;;;0.40;0.40;;;13.90;99.90;;;;;;4912871;29;20044;-81
2023/08/28 03:16:55;;;;;;;0.50;0.50;;;13.90;99.90;;;;;;4929513;29;20036;-80
2023/08/28 03:19:20;;;;;;;0.40;0.40;;;13.90;99.90;;;;;;4928674;29;20031;-80
2023/08/28 03:21:46;;;;;;;0.50;0.50;;;13.90;99.90;;;;;;4906030;29;20026;-80
2023/08/28 03:24:12;;;;;;;0.40;0.40;;;13.90;99.90;;;;;;4929294;29;20036;-81
2023/08/28 03:26:37;;;;;;;1.88;0.95;;;13.80;99.90;;;;;;4943344;28;20047;-80
2023/08/28 03:29:04;;;;;;;0.40;0.40;;;13.80;99.90;;;;;;4928843;29;20032;-80
2023/08/28 03:31:30;;;;;;;0.50;0.50;;;13.80;99.90;;;;;;4930819;29;20379;-80
2023/08/28 03:33:55;;;;;;;0.40;0.40;;;13.80;99.90;;;;;;4942207;28;20035;-81
2023/08/28 03:36:21;;;;;;;0.50;0.50;;;13.70;99.90;;;;;;4930466;29;20130;-80
2023/08/28 03:38:47;;;;;;;0.40;0.40;;;13.70;99.90;;;;;;4928540;29;20035;-80
2023/08/28 03:41:12;;;;;;;0.40;0.40;;;13.60;99.90;;;;;;4927507;29;20043;-80
2023/08/28 03:43:38;;;;;;;0.60;0.60;;;13.60;99.90;;;;;;4929694;29;20462;-80
2023/08/28 03:46:04;;;;;;;0.40;0.40;;;13.50;99.90;;;;;;4943493;28;20011;-80
2023/08/28 03:48:29;;;;;;;0.77;0.77;;;13.50;99.90;;;;;;4943323;28;20079;-80
2023/08/28 03:50:55;;;;;;;0.90;0.90;;;13.50;99.90;;;;;;4904063;29;20060;-81
2023/08/28 03:53:20;;;;;;;0.50;0.50;;;13.40;99.90;;;;;;4912256;29;20044;-81
2023/08/28 03:55:46;;;;;;;0.50;0.50;;;13.50;99.90;;;;;;4918380;29;20476;-80
2023/08/28 03:58:12;;;;;;;0.50;0.50;;;13.50;99.90;;;;;;4921528;29;20114;-80
2023/08/28 04:00:39;;;;;;;0.60;0.60;;;13.50;99.90;;;;;;4902589;29;20024;-81
2023/08/28 04:03:05;;;;;;;0.50;0.50;;;13.40;99.90;;;;;;4925392;29;20063;-80
2023/08/28 04:05:35;;;;;;;0.50;0.50;;;13.40;99.90;;;;;;4926358;29;20413;-81
2023/08/28 04:08:00;;;;;;;0.50;0.50;;;13.40;99.90;;;;;;4925399;29;20779;-81
2023/08/28 04:10:26;;;;;;;0.57;0.57;;;13.50;99.90;;;;;;4929189;29;20043;-80
2023/08/28 04:12:51;;;;;;;0.68;0.68;;;13.40;99.90;;;;;;4905478;29;20043;-80
2023/08/28 04:15:17;;;;;;;0.50;0.50;;;13.40;99.90;;;;;;4941844;28;20058;-80
2023/08/28 04:17:43;;;;;;;0.50;0.50;;;13.40;99.90;;;;;;4927494;29;20023;-80
2023/08/28 04:20:12;;;;;;;0.60;0.60;;;13.30;99.90;;;;;;4911810;29;20122;-80
2023/08/28 04:22:41;;;;;;;0.50;0.50;;;13.10;99.90;;;;;;4927777;29;20039;-80
2023/08/28 04:25:07;;;;;;;0.50;0.50;;;13.10;99.90;;;;;;4928314;29;20020;-80
2023/08/28 04:27:33;;;;;;;0.20;0.20;;;13.20;99.90;;;;;;4926645;29;20027;-80
2023/08/28 04:29:58;;;;;;;0.63;0.63;;;13.20;99.90;;;;;;4917509;29;20028;-80
2023/08/28 04:32:26;;;;;;;0.20;0.20;;;13.30;99.90;;;;;;4943442;28;20011;-80
2023/08/28 04:34:54;;;;;;;0.20;0.20;;;13.20;99.90;;;;;;4928152;29;20106;-80
2023/08/28 04:37:20;;;;;;;0.20;0.20;;;13.20;99.90;;;;;;4926832;29;20040;-80
2023/08/28 04:39:45;;;;;;;0.30;0.30;;;13.20;99.90;;;;;;4914921;29;20034;-80
2023/08/28 04:42:14;;;;;;;0.30;0.30;;;13.20;99.90;;;;;;4943430;28;20050;-80
2023/08/28 04:44:44;;;;;;;0.22;0.22;;;13.30;99.90;;;;;;4926307;29;20501;-80
2023/08/28 04:47:10;;;;;;;0.20;0.20;;;13.20;99.90;;;;;;4911529;29;20051;-79
2023/08/28 04:49:36;;;;;;;0.40;0.40;;;13.20;99.90;;;;;;4926443;29;20357;-80
2023/08/28 04:52:05;;;;;;;0.30;0.30;;;13.20;99.90;;;;;;4928570;29;20035;-80
2023/08/28 04:54:32;;;;;;;0.40;0.40;;;13.20;99.90;;;;;;4928997;29;20051;-80
2023/08/28 04:56:58;;;;;;;0.40;0.40;;;13.20;99.90;;;;;;4926750;29;20118;-80
2023/08/28 04:59:24;;;;;;;1.45;1.35;;;13.30;99.90;;;;;;4903905;29;20179;-80
2023/08/28 05:01:49;;;;;;;0.30;0.30;;;13.30;99.90;;;;;;4926134;29;20027;-80
2023/08/28 05:04:17;;;;;;;0.60;0.60;;;13.30;99.90;;;;;;4927854;29;20083;-80
2023/08/28 05:06:43;;;;;;;0.60;0.60;;;13.30;99.90;;;;;;4917242;29;20032;-80
2023/08/28 05:09:11;;;;;;;0.88;0.88;;;13.30;99.90;;;;;;4905554;29;20356;-80
2023/08/28 05:11:38;;;;;;;0.70;0.70;;;13.40;99.90;;;;;;4901869;29;20500;-80
2023/08/28 05:14:03;;;;;;;0.75;0.75;;;13.40;99.90;;;;;;4929149;29;20091;-85
2023/08/28 05:16:29;;;;;;;1.25;1.25;;;13.30;99.90;;;;;;4926453;29;20083;-81
2023/08/28 05:18:55;;;;;;;0.60;0.60;;;13.30;99.90;;;;;;4903730;29;20697;-81
2023/08/28 05:21:20;;;;;;;0.77;0.77;;;13.20;99.90;;;;;;4936438;29;20023;-82
2023/08/28 05:23:46;;;;;;;0.60;0.60;;;13.30;99.90;;;;;;4929924;29;20058;-81
2023/08/28 05:26:11;;;;;;;0.20;0.20;;;13.30;99.90;;;;;;4917004;29;20059;-81
2023/08/28 05:28:38;;;;;;;0.60;0.60;;;13.30;99.90;;;;;;4949349;28;20020;-81
2023/08/28 05:31:04;;;;;;;0.70;0.70;;;13.30;99.90;;;;;;4910860;29;20568;-81
2023/08/28 05:33:35;;;;;;;0.40;0.40;;;13.40;99.90;;;;;;4934017;29;20119;-82
2023/08/28 05:36:03;;;;;;;0.80;0.80;;;13.30;99.90;;;;;;4916045;29;20119;-83
2023/08/28 05:38:30;;;;;;;0.60;0.60;;;13.40;99.90;;;;;;4933972;29;20031;-83
2023/08/28 05:40:55;;;;;;;0.60;0.60;;;13.50;99.90;;;;;;4910243;29;20031;-83
2023/08/28 05:43:21;;;;;;;0.85;0.85;;;13.50;99.90;;;;;;4947792;28;20031;-82
2023/08/28 05:45:47;;;;;;;0.80;0.80;;;13.70;99.90;;;;;;4934109;29;20537;-82
2023/08/28 05:48:13;;;;;;;0.90;0.90;;;13.70;99.90;;;;;;4909503;29;20567;-82
2023/08/28 05:50:39;;;;;;;0.70;0.70;;;13.80;99.90;;;;;;4911881;29;20031;-82
2023/08/28 05:53:06;;;;;;;0.70;0.70;;;13.80;99.90;;;;;;4933786;29;20032;-83
2023/08/28 05:55:32;;;;;;;0.73;0.73;;;13.90;99.90;;;;;;4934585;29;20030;-82
2023/08/28 05:57:58;;;;;;;0.80;0.80;;;14.00;99.90;;;;;;4919218;29;20110;-83
2023/08/28 06:00:26;;;;;;;0.70;0.70;;;14.00;99.90;;;;;;4932826;29;20030;-82
2023/08/28 06:02:54;;;;;;;0.73;0.73;;;14.00;99.90;;;;;;4918333;29;20024;-82
2023/08/28 06:05:20;;;;;;;0.80;0.80;;;14.00;99.90;;;;;;4916524;29;20030;-82
2023/08/28 06:07:45;;;;;;;0.80;0.80;;;14.10;99.90;;;;;;4933684;29;20099;-83
2023/08/28 06:10:19;;;;;;;0.80;0.80;;;14.20;99.90;;;;;;4934357;29;20504;-82
2023/08/28 06:12:48;;;;;;;0.80;0.80;;;14.20;99.90;;;;;;4914055;29;20126;-83
2023/08/28 06:15:21;;;;;;;0.88;0.88;;;14.30;99.90;;;;;;4922453;29;20023;-82
2023/08/28 06:17:49;;;;;;;;;;;14.40;99.90;;;;;;4933401;29;20016;-83
2023/08/28 06:20:15;;;;;;;0.90;0.90;;;14.50;99.90;;;;;;4930677;29;20017;-82
2023/08/28 06:22:45;;;;;;;1.00;1.00;;;14.50;99.90;;;;;;4934160;29;20019;-82
2023/08/28 06:25:11;;;;;;;2.25;2.17;;;14.60;99.90;;;;;;4912727;29;20078;-82
2023/08/28 06:27:38;;;;;;;0.90;0.90;;;14.60;99.90;;;;;;4912142;29;20051;-82
2023/08/28 06:30:06;;;;;;;0.90;0.90;;;14.70;99.90;;;;;;4938636;29;20094;-82
2023/08/28 06:32:33;;;;;;;1.10;1.10;;;14.80;99.90;;;;;;4945642;28;20290;-82
2023/08/28 06:34:59;;;;;;;1.10;1.10;;;14.80;99.90;;;;;;4906753;29;20119;-83
2023/08/28 06:37:25;;;;;;;0.90;0.90;;;14.90;99.90;;;;;;4931758;29;20032;-83
2023/08/28 06:39:52;;;;;;;1.00;1.00;;;15.00;99.90;;;;;;4914038;29;20051;-82
2023/08/28 06:42:17;;;;;;;1.90;1.80;;;15.10;99.90;;;;;;4931040;29;20123;-83
2023/08/28 06:44:43;;;;;;;1.10;1.10;;;15.20;99.90;;;;;;4911415;29;20126;-82
2023/08/28 06:47:09;;;;;;;1.00;1.00;;;15.10;99.90;;;;;;4908259;29;20020;-82
2023/08/28 06:49:34;;;;;;;1.02;1.02;;;15.10;99.90;;;;;;4929511;29;20028;-83
2023/08/28 06:52:04;;;;;;;0.77;0.77;;;15.20;99.90;;;;;;4931046;29;20027;-82
2023/08/28 06:54:34;;;;;;;1.75;1.65;;;15.20;99.90;;;;;;4919033;29;20039;-83
2023/08/28 06:57:00;;;;;;;0.65;0.65;;;15.20;99.90;;;;;;4944304;28;20126;-83
2023/08/28 06:59:28;;;;;;;0.73;0.73;;;15.20;99.90;;;;;;4932399;29;20114;-83
2023/08/28 07:01:54;;;;;;;0.60;0.60;;;15.20;99.90;;;;;;4912572;29;20486;-83
2023/08/28 07:04:19;;;;;;;0.68;0.68;;;15.30;99.90;;;;;;4930658;29;20028;-83
2023/08/28 07:06:45;;;;;;;0.60;0.60;;;15.20;99.90;;;;;;4931930;29;20034;-82
2023/08/28 07:09:11;;;;;;;0.82;0.82;;;15.20;99.90;;;;;;4942864;29;20034;-83
2023/08/28 07:11:36;;;;;;;0.68;0.68;;;15.20;99.90;;;;;;4946584;29;20122;-83
2023/08/28 07:14:03;;;;;;;2.85;2.67;;;15.30;99.90;;;;;;4928397;29;20039;-82
2023/08/28 07:16:28;;;;;;;0.70;0.70;;;15.30;99.90;;;;;;4915870;29;20020;-81
2023/08/28 07:18:54;;;;;;;0.70;0.70;;;15.30;99.90;;;;;;4929706;29;20030;-82
2023/08/28 07:21:20;;;;;;;0.70;0.70;;;15.10;99.90;;;;;;4929565;29;20106;-81
2023/08/28 07:23:46;;;;;;;0.70;0.70;;;15.10;99.90;;;;;;4931556;29;20039;-82
2023/08/28 07:26:12;;;;;;;0.65;0.65;;;15.10;99.90;;;;;;4921202;29;20041;-81
2023/08/28 07:28:37;;;;;;;0.60;0.60;;;15.00;99.90;;;;;;4919243;29;20024;-81
2023/08/28 07:31:03;;;;;;;0.63;0.63;;;15.00;99.90;;;;;;4929358;29;20476;-81
2023/08/28 07:33:29;;;;;;;0.60;0.60;;;15.10;99.90;;;;;;4930537;29;20492;-81
2023/08/28 07:35:55;;;;;;;0.55;0.55;;;15.20;99.90;;;;;;4913859;29;20031;-81
2023/08/28 07:38:20;;;;;;;0.60;0.60;;;15.20;99.90;;;;;;4933004;29;20031;-80
2023/08/28 07:40:47;;;;;;;2.55;2.35;;;15.20;99.90;;;;;;4948190;28;20114;-82
2023/08/28 07:43:13;;;;;;;0.80;0.80;;;15.40;99.90;;;;;;4926718;29;20031;-81
2023/08/28 07:45:39;;;;;;;0.80;0.80;;;15.60;99.90;;;;;;4923739;29;20396;-82
2023/08/28 07:48:05;;;;;;;1.30;1.27;;;15.70;99.90;;;;;;4929171;29;20040;-90
2023/08/28 07:50:31;;;;;;;0.80;0.80;;;15.80;99.90;;;;;;4926518;29;20031;-87
2023/08/28 07:52:57;;;;;;;1.05;1.05;;;15.90;99.90;;;;;;4932872;29;20051;-81
2023/08/28 07:55:23;;;;;;;0.90;0.90;;;16.00;99.90;;;;;;4911256;29;20615;-81
2023/08/28 07:57:49;;;;;;;1.02;1.02;;;16.20;99.90;;;;;;4930063;29;20094;-81
2023/08/28 08:00:20;;;;;;;5.70;1.65;;;16.20;99.90;;;;;;4930067;29;20111;-82
2023/08/28 08:02:46;;;;;;;0.80;0.80;;;16.30;99.90;;;;;;4911424;29;20403;-82
2023/08/28 08:05:12;;;;;;;1.10;1.10;;;16.40;99.90;;;;;;4921453;29;20091;-82
2023/08/28 08:07:40;;;;;;;1.75;1.65;;;16.60;99.90;;;;;;4928453;29;20036;-81
2023/08/28 08:10:10;;;;;;;1.00;1.00;;;16.70;99.90;;;;;;4921226;29;20039;-82
2023/08/28 08:12:38;;;;;;;0.90;0.90;;;16.90;99.90;;;;;;4928847;29;20028;-82
2023/08/28 08:15:06;;;;;;;1.08;1.08;;;17.00;99.90;;;;;;4928603;29;20455;-82
2023/08/28 08:17:31;;;;;;;0.95;0.95;;;17.00;99.90;;;;;;4907846;29;20031;-82
2023/08/28 08:19:57;;;;;;;0.90;0.90;;;17.20;99.90;;;;;;4907457;29;20024;-91
2023/08/28 08:22:23;;;;;;;2.95;2.85;;;17.30;99.90;;;;;;4915653;29;20036;-90
2023/08/28 08:24:51;;;;;;;0.90;0.90;;;17.30;99.90;;;;;;4922628;29;20353;-91
2023/08/28 08:27:19;;;;;;;2.10;2.10;;;17.50;99.90;;;;;;4930066;29;20103;-89
2023/08/28 08:29:48;;;;;;;0.80;0.80;;;17.60;99.90;;;;;;4929295;29;20047;-81
2023/08/28 08:32:14;;;;;;;0.90;0.90;;;17.90;99.90;;;;;;4944166;28;20032;-82
2023/08/28 08:34:40;;;;;;;0.80;0.80;;;18.00;99.90;;;;;;4921878;29;20041;-84
2023/08/28 08:37:05;;;;;;;0.60;0.60;;;18.10;99.90;;;;;;4917112;29;20039;-83
2023/08/28 08:39:31;;;;;;;0.80;0.80;;;18.10;99.90;;;;;;4928133;29;20035;-83
2023/08/28 08:41:57;;;;;;;0.98;0.98;;;18.40;99.90;;;;;;4928982;29;20016;-83
2023/08/28 08:44:25;;;;;;;0.93;0.93;;;18.70;99.90;;;;;;4912507;29;20028;-83
2023/08/28 08:46:53;;;;;;;1.00;1.00;;;19.00;99.90;;;;;;4929312;29;20333;-83
2023/08/28 08:49:25;;;;;;;0.77;0.77;;;19.20;99.90;;;;;;4917947;29;20028;-83
2023/08/28 08:51:52;;;;;;;0.75;0.75;;;19.40;99.90;;;;;;4920519;29;20070;-83
2023/08/28 08:54:24;;;;;;;0.63;0.63;;;19.40;99.90;;;;;;4906764;29;20050;-83
2023/08/28 08:57:00;;;;;;;0.73;0.73;;;19.30;99.90;;;;;;4927888;29;20016;-88
2023/08/28 08:59:26;;;;;;;0.80;0.80;;;19.50;99.90;;;;;;4902922;29;20046;-83
2023/08/28 09:01:53;;;;;;;0.95;0.95;;;19.80;99.90;;;;;;4942926;28;20042;-84
2023/08/28 09:04:23;;;;;;;0.88;0.88;;;19.90;99.90;;;;;;4912837;29;20068;-82
2023/08/28 09:06:52;;;;;;;0.85;0.85;;;19.90;99.90;;;;;;4922622;29;20024;-83
2023/08/28 09:09:17;;;;;;;0.82;0.82;;;20.00;99.90;;;;;;4942329;28;20218;-82
2023/08/28 09:11:45;;;;;;;1.00;1.00;;;20.00;99.90;;;;;;4942201;28;20159;-82
2023/08/28 09:14:12;;;;;;;1.10;1.10;;;19.90;99.90;;;;;;4944276;28;20051;-82
2023/08/28 09:16:38;;;;;;;1.05;1.05;;;19.80;99.90;;;;;;4914337;29;20519;-83
2023/08/28 09:19:03;;;;;;;1.20;1.20;;;19.90;99.90;;;;;;4934312;29;20012;-83
2023/08/28 09:21:37;;;;;;;1.25;1.25;;;20.20;99.90;;;;;;4942351;29;20173;-82
2023/08/28 09:24:08;;;;;;;1.20;1.20;;;20.40;99.90;;;;;;4925268;29;20031;-82
2023/08/28 09:26:37;;;;;;;0.90;0.90;;;20.30;99.90;;;;;;4906982;29;20028;-82
2023/08/28 09:29:06;;;;;;;1.08;1.08;;;20.30;99.90;;;;;;4907860;29;20043;-82
2023/08/28 09:31:34;;;;;;;1.90;1.85;;;20.30;99.90;;;;;;4932906;29;20027;-82
2023/08/28 09:34:00;;;;;;;1.00;1.00;;;20.40;99.90;;;;;;4925281;29;20614;-83
2023/08/28 09:36:27;;;;;;;1.10;1.10;;;20.50;99.90;;;;;;4912776;29;20099;-83
2023/08/28 09:39:03;;;;;;;1.25;1.25;;;20.80;99.90;;;;;;4929905;29;20020;-81
2023/08/28 09:41:40;;;;;;;8.00;2.28;;;21.20;99.90;;;;;;4920608;29;20039;-82
2023/08/28 09:44:06;;;;;;;1.13;1.13;;;21.20;98.90;;;;;;4927842;29;20024;-81
2023/08/28 09:46:32;;;;;;;0.85;0.85;;;21.10;98.50;;;;;;4926070;29;20027;-82
2023/08/28 09:48:58;;;;;;;1.02;1.02;;;20.70;99.60;;;;;;4925914;29;20024;-82
2023/08/28 09:51:48;;;;;;;1.00;1.00;;;20.50;99.90;;;;;;4941921;28;20115;-83
2023/08/28 09:54:17;;;;;;;1.00;1.00;;;20.30;99.90;;;;;;4925961;29;20535;-82
2023/08/28 09:56:43;;;;;;;0.90;0.90;;;20.30;99.90;;;;;;4917378;29;20028;-82
2023/08/28 09:59:14;;;;;;;1.10;1.10;;;20.50;99.90;;;;;;4915538;29;20043;-82
2023/08/28 10:01:40;;;;;;;0.90;0.90;;;20.60;99.90;;;;;;4924156;29;20055;-82
2023/08/28 10:04:07;;;;;;;1.00;1.00;;;20.70;99.90;;;;;;4913058;29;20074;-82
2023/08/28 10:06:49;;;;;;;0.80;0.80;;;20.90;99.70;;;;;;4926274;29;20039;-82
2023/08/28 10:09:19;;;;;;;1.33;1.33;;;21.20;99.50;;;;;;4929554;29;20035;-82
2023/08/28 10:11:45;;;;;;;1.15;1.15;;;21.30;99.30;;;;;;4927636;29;20118;-82
2023/08/28 10:14:12;;;;;;;0.90;0.90;;;21.40;98.50;;;;;;4929721;29;20032;-82
2023/08/28 10:16:54;;;;;;;0.80;0.80;;;21.50;98.80;;;;;;4912908;29;20034;-82
2023/08/28 10:19:27;;;;;;;1.02;1.02;;;22.00;96.90;;;;;;4931048;29;20051;-81
2023/08/28 10:21:53;;;;;;;;;;;22.60;98.00;;;;;;4932183;29;20030;-82
2023/08/28 10:24:19;;;;;;;0.90;0.90;;;22.90;94.30;;;;;;4927215;29;19910;-83
2023/08/28 10:26:47;;;;;;;0.88;0.88;;;23.10;93.50;;;;;;4930117;29;20083;-81
2023/08/28 10:29:15;;;;;;;1.00;1.00;;;22.90;94.00;;;;;;4945374;29;20193;-81
2023/08/28 10:31:41;;;;;;;0.88;0.88;;;22.90;94.30;;;;;;4945935;28;20031;-82
2023/08/28 10:34:08;;;;;;;0.93;0.93;;;22.80;92.90;;;;;;4929583;29;20067;-81
2023/08/28 10:36:37;;;;;;;0.93;0.93;;;22.80;94.00;;;;;;4930789;29;20028;-82
2023/08/28 10:39:04;;;;;;;1.00;1.00;;;23.10;92.80;;;;;;4913771;29;20495;-82
2023/08/28 10:41:31;;;;;;;1.00;1.00;;;23.30;92.70;;;;;;4913952;29;20111;-81
2023/08/28 10:43:58;;;;;;;1.13;1.13;;;23.20;92.00;;;;;;4928915;29;20391;-82
2023/08/28 10:46:27;;;;;;;1.40;1.40;;;23.40;91.70;;;;;;4914042;29;20024;-81
2023/08/28 10:48:57;;;;;;;2.05;1.90;;;23.40;90.60;;;;;;4912926;29;20440;-82
2023/08/28 10:51:33;;;;;;;0.80;0.80;;;23.60;89.60;;;;;;4906827;29;20039;-86
2023/08/28 10:54:11;;;;;;;0.77;0.77;;;23.50;88.00;;;;;;4934247;29;20047;-85
2023/08/28 10:56:38;;;;;;;0.80;0.80;;;23.50;86.40;;;;;;4924520;29;20027;-81
2023/08/28 10:59:19;;;;;;;0.80;0.80;;;23.60;89.90;;;;;;4913669;29;20028;-81
2023/08/28 11:02:00;;;;;;;1.00;1.00;;;23.60;89.30;;;;;;4931340;29;20032;-81
2023/08/28 11:04:37;;;;;;;1.00;1.00;;;23.60;91.00;;;;;;4911436;29;20188;-81
2023/08/28 11:07:04;;;;;;;0.98;0.98;;;23.40;89.20;;;;;;4928780;29;20209;-81
2023/08/28 11:09:29;;;;;;;0.80;0.80;;;23.30;91.30;;;;;;4919700;29;20423;-81
2023/08/28 11:11:58;;;;;;;0.93;0.93;;;22.90;90.50;;;;;;4928647;29;20036;-81
2023/08/28 11:14:53;;;;;;;0.80;0.80;;;22.30;92.40;;;;;;4932155;29;20118;-80
2023/08/28 11:17:23;;;;;;;0.80;0.80;;;22.30;91.40;;;;;;4924144;29;20103;-80
2023/08/28 11:19:55;;;;;;;1.10;1.10;;;22.40;91.70;;;;;;4930287;28;20095;-77
2023/08/28 11:22:30;;;;;;;2.85;2.75;;;22.40;92.00;;;;;;4928999;29;20015;-82
2023/08/28 11:24:57;;;;;;;1.08;1.08;;;22.40;91.70;;;;;;4960047;28;20024;-82
2023/08/28 11:28:01;;;;;;;0.90;0.90;;;22.50;91.60;;;;;;4949828;28;20149;-84
2023/08/28 11:30:26;;;;;;;0.80;0.80;;;22.50;92.10;;;;;;4894243;29;20040;-80
2023/08/28 11:32:55;;;;;;;0.90;0.90;;;22.50;91.60;;;;;;4928911;29;20518;-80
2023/08/28 11:35:22;;;;;;;0.70;0.70;;;22.30;92.30;;;;;;4926629;29;20027;-80
2023/08/28 11:37:51;;;;;;;0.70;0.70;;;22.10;92.30;;;;;;4927542;29;20031;-81
2023/08/28 11:40:24;;;;;;;1.00;1.00;;;21.90;92.20;;;;;;4927800;29;20016;-80
2023/08/28 11:43:06;;;;;;;0.73;0.73;;;21.40;92.80;;;;;;4935434;28;20031;-80
2023/08/28 11:45:32;;;;;;;0.85;0.85;;;20.90;93.50;;;;;;4924940;29;20519;-81
2023/08/28 11:48:04;;;;;;;0.85;0.85;;;20.90;94.10;;;;;;4926825;29;20559;-80
2023/08/28 11:50:32;;;;;;;1.35;1.35;;;21.00;94.70;;;;;;4921460;29;20027;-81
2023/08/28 11:52:58;;;;;;;1.20;1.20;;;20.80;94.30;;;;;;4926420;29;20047;-84
2023/08/28 11:55:33;;;;;;;1.10;1.10;;;20.60;94.70;;;;;;4925128;29;20274;-80
2023/08/28 11:57:59;;;;;;;1.10;1.10;;;20.70;94.90;;;;;;4918277;29;20035;-80
2023/08/28 12:00:27;;;;;;;1.05;1.05;;;20.70;94.20;;;;;;4926783;29;20026;-83
2023/08/28 12:02:52;;;;;;;1.20;1.20;;;20.80;94.60;;;;;;4924996;29;20039;-81
2023/08/28 12:05:18;;;;;;;2.55;2.35;;;20.90;94.20;;;;;;4924427;29;20020;-81
2023/08/28 12:07:45;;;;;;;1.30;1.30;;;21.00;94.30;;;;;;4925609;29;20276;-81
2023/08/28 12:10:13;;;;;;;1.10;1.10;;;21.10;93.80;;;;;;4924253;29;20038;-81
2023/08/28 12:12:42;;;;;;;0.90;0.90;;;21.20;94.00;;;;;;4939748;28;20396;-81
2023/08/28 12:15:11;;;;;;;0.80;0.80;;;21.10;93.30;;;;;;4925585;29;20547;-81
2023/08/28 12:17:40;;;;;;;1.00;1.00;;;21.10;93.90;;;;;;4923550;29;20051;-82
2023/08/28 12:20:16;;;;;;;1.00;1.00;;;21.10;94.00;;;;;;4922870;29;20083;-81
2023/08/28 12:22:43;;;;;;;1.05;1.05;;;21.20;94.30;;;;;;4918867;29;20101;-88
2023/08/28 12:25:08;;;;;;;1.42;1.42;;;21.40;94.50;;;;;;4930921;29;20024;-87
2023/08/28 12:27:34;;;;;;;1.10;1.10;;;21.70;93.90;;;;;;4929840;29;20031;-82
2023/08/28 12:30:00;;;;;;;1.30;1.30;;;21.80;93.60;;;;;;4930350;29;20035;-83
2023/08/28 12:32:26;;;;;;;1.00;1.00;;;22.10;93.50;;;;;;4924064;29;20550;-83
2023/08/28 12:34:51;;;;;;;1.00;1.00;;;22.30;93.00;;;;;;4922808;29;20307;-82
2023/08/28 12:37:17;;;;;;;1.10;1.10;;;22.40;92.60;;;;;;4926100;29;20094;-82
2023/08/28 12:39:55;;;;;;;1.67;1.58;;;22.60;91.40;;;;;;4925384;29;20120;-81
2023/08/28 12:42:21;;;;;;;0.85;0.85;;;22.40;91.90;;;;;;4925751;29;20032;-81
2023/08/28 12:44:47;;;;;;;1.02;1.02;;;22.50;92.20;;;;;;4923259;29;20024;-84
2023/08/28 12:47:17;;;;;;;0.98;0.98;;;22.80;91.50;;;;;;4926693;29;20049;-87
2023/08/28 12:49:43;;;;;;;1.30;1.30;;;23.10;90.00;;;;;;4927173;29;20114;-85
2023/08/28 12:52:11;;;;;;;0.90;0.90;;;23.10;90.10;;;;;;4929956;29;20203;-85